Corinth, Vermont
Current Conditions -  °F | °C
As of 4:51 AM on Friday 24 Oct 2014 (Local Time) from KMPV Reporting Station
Haze Haze  
Wind Chill:   Ceiling: 200
Heat Index:   Visibility: 4mi
Dew Point:   Wind: 7mph
Humidity: 96%   Direction: 320°NW
Pressure: 29.81"   Gusts: NA
Location:  44.02°N, 72.3°W
Report Text: KMPV 240851Z AUTO 32006KT 4SM BR OVC002 05/04 A2981 RMK AO2 RAE36 SLP102 P0002 60009 T00500044 56006
Loading
Personal Weather Stations






























Interactive Weather Map
Tropical Storm Tracking
New forecast layout! Learn more

10-Day Weather Forecast

Advertisements
Track Severe Weather on mobile